Time;durP1;ratioP1;P1;durP2;ratioP2;P2;SDS_P1;SDS_P2;PMS_P1;PMS_P2;Temp;Humidity;BMP_temperature;BMP_pressure;BME280_temperature;BME280_humidity;BME280_pressure;Samples;Min_cycle;Max_cycle;Signal;HPM_P1;HPM_P2
2023/04/16 00:00:37;;;;;;;12.00;8.95;;;;;;;9.81;100.00;100029.97;5088777;28;20039;-71
2023/04/16 00:03:03;;;;;;;13.30;9.40;;;;;;;9.76;100.00;100021.47;5089194;28;20028;-71
2023/04/16 00:05:28;;;;;;;13.15;9.27;;;;;;;9.72;100.00;100022.75;5088847;28;20120;-71
2023/04/16 00:07:54;;;;;;;15.88;8.52;;;;;;;9.70;100.00;100018.53;5088592;28;20055;-71
2023/04/16 00:10:19;;;;;;;13.25;8.27;;;;;;;9.71;100.00;100014.84;5088218;28;20036;-71
2023/04/16 00:12:45;;;;;;;12.02;8.27;;;;;;;9.68;100.00;100018.66;5088658;28;20447;-70
2023/04/16 00:15:10;;;;;;;11.85;8.35;;;;;;;9.55;100.00;100002.00;5070591;28;20035;-71
2023/04/16 00:17:36;;;;;;;11.10;9.02;;;;;;;9.63;100.00;100020.88;5088575;28;20082;-71
2023/04/16 00:20:01;;;;;;;12.32;9.23;;;;;;;9.63;100.00;100025.38;5088647;28;20048;-71
2023/04/16 00:22:27;;;;;;;10.60;8.52;;;;;;;9.58;100.00;100023.13;5087839;28;20032;-71
2023/04/16 00:24:52;;;;;;;13.32;9.32;;;;;;;9.51;100.00;100016.59;5088878;28;20036;-70
2023/04/16 00:27:18;;;;;;;12.60;9.05;;;;;;;9.31;100.00;99981.91;5088775;28;20036;-70
2023/04/16 00:29:44;;;;;;;11.82;9.15;;;;;;;9.44;100.00;100017.31;5088568;28;20077;-70
2023/04/16 00:32:09;;;;;;;10.65;8.68;;;;;;;9.38;100.00;100018.66;5088574;28;20028;-71
2023/04/16 00:34:35;;;;;;;14.77;9.93;;;;;;;9.22;100.00;100004.94;5088231;28;20032;-68
2023/04/16 00:37:00;;;;;;;15.52;11.02;;;;;;;9.26;100.00;100011.72;5088338;28;20024;-71
2023/04/16 00:39:26;;;;;;;15.95;11.80;;;;;;;9.22;100.00;100023.66;5088290;28;20031;-70
2023/04/16 00:41:51;;;;;;;17.05;12.98;;;;;;;9.18;100.00;100017.75;5088421;28;20032;-71
2023/04/16 00:44:17;;;;;;;19.00;12.77;;;;;;;9.09;100.00;100013.19;5088467;28;20391;-71
2023/04/16 00:46:43;;;;;;;16.52;12.48;;;;;;;9.10;100.00;100027.41;5088147;28;20036;-71
2023/04/16 00:49:09;;;;;;;19.55;13.60;;;;;;;9.04;100.00;100027.94;5069571;28;20122;-71
2023/04/16 00:51:35;;;;;;;19.77;14.18;;;;;;;8.92;100.00;100018.28;5088220;28;20031;-71
2023/04/16 00:54:02;;;;;;;20.02;14.13;;;;;;;8.89;100.00;100021.22;5088520;28;20782;-72
2023/04/16 00:56:27;;;;;;;21.20;13.80;;;;;;;8.82;100.00;100020.06;5088196;28;20042;-71
2023/04/16 00:58:55;;;;;;;21.77;14.90;;;;;;;8.78;100.00;100022.13;5088175;28;20024;-71
2023/04/16 01:01:20;;;;;;;19.23;13.98;;;;;;;8.72;100.00;100016.47;5088082;28;20036;-71
2023/04/16 01:03:47;;;;;;;20.13;13.63;;;;;;;8.58;100.00;100006.13;5088084;28;20042;-71
2023/04/16 01:06:13;;;;;;;21.67;15.00;;;;;;;8.64;100.00;100026.97;5087681;28;20111;-71
2023/04/16 01:08:39;;;;;;;21.15;14.07;;;;;;;8.44;100.00;100001.06;5087663;28;20031;-71
2023/04/16 01:11:05;;;;;;;23.48;14.65;;;;;;;8.50;100.00;100020.13;5088111;28;20024;-71
2023/04/16 01:13:31;;;;;;;18.70;14.27;;;;;;;8.46;100.00;100021.34;5088026;28;20033;-71
2023/04/16 01:15:56;;;;;;;21.80;14.45;;;;;;;8.37;100.00;100013.25;5088098;28;20030;-71
2023/04/16 01:18:24;;;;;;;20.83;14.43;;;;;;;8.35;100.00;100023.22;5087488;28;20111;-72
2023/04/16 01:20:50;;;;;;;19.08;14.30;;;;;;;8.31;100.00;100019.09;5087296;28;20036;-72
2023/04/16 01:23:20;;;;;;;19.48;13.82;;;;;;;8.25;100.00;100022.28;5087382;28;20444;-71
2023/04/16 01:25:46;;;;;;;20.13;14.50;;;;;;;8.17;100.00;100025.56;5087819;28;20032;-71
2023/04/16 01:28:11;;;;;;;20.50;14.98;;;;;;;8.13;100.00;100031.28;5087754;28;20035;-72
2023/04/16 01:30:37;;;;;;;20.75;14.57;;;;;;;8.06;100.00;100028.25;5087696;28;20031;-69
2023/04/16 01:33:03;;;;;;;20.92;12.98;;;;;;;8.08;100.00;100030.81;5069579;28;20107;-69
2023/04/16 01:35:28;;;;;;;17.35;12.40;;;;;;;8.06;100.00;100032.78;5087479;28;20047;-69
2023/04/16 01:37:54;;;;;;;18.20;13.38;;;;;;;8.02;100.00;100026.81;5087699;28;20028;-69
2023/04/16 01:40:19;;;;;;;22.42;14.18;;;;;;;7.87;100.00;100005.88;5087170;28;20028;-69
2023/04/16 01:42:45;;;;;;;19.70;12.32;;;;;;;7.98;100.00;100027.19;5087587;28;20031;-69
2023/04/16 01:45:11;;;;;;;20.73;13.95;;;;;;;7.95;100.00;100030.97;5069703;28;20027;-69
2023/04/16 01:47:36;;;;;;;26.60;17.38;;;;;;;7.90;100.00;100032.31;5087133;28;20032;-68
2023/04/16 01:50:02;;;;;;;25.50;16.55;;;;;;;7.88;100.00;100028.91;5087278;28;20038;-69
2023/04/16 01:52:28;;;;;;;23.88;16.58;;;;;;;7.72;100.00;100007.13;5068507;28;20028;-70
2023/04/16 01:54:54;;;;;;;21.50;15.60;;;;;;;7.81;100.00;100033.06;5087717;28;20051;-69
2023/04/16 01:57:19;;;;;;;19.15;13.20;;;;;;;7.69;100.00;100024.22;5084874;28;20074;-68
2023/04/16 01:59:45;;;;;;;20.10;13.43;;;;;;;7.69;100.00;100029.56;5087156;28;20097;-72
2023/04/16 02:02:13;;;;;;;19.08;13.13;;;;;;;7.64;100.00;100026.41;5087644;28;20032;-72
2023/04/16 02:04:40;;;;;;;20.85;12.35;;;;;;;7.55;100.00;100023.63;5068619;28;20069;-71
2023/04/16 02:07:07;;;;;;;17.63;13.07;;;;;;;7.56;100.00;100034.19;5087543;28;20028;-71
2023/04/16 02:09:39;;;;;;;18.67;12.32;;;;;;;7.50;100.00;100029.34;5087484;28;20024;-72
2023/04/16 02:12:06;;;;;;;19.40;12.40;;;;;;;7.46;100.00;100035.91;5084782;28;20091;-71
2023/04/16 02:14:32;;;;;;;17.85;12.35;;;;;;;7.28;100.00;100008.00;5068731;28;20028;-71
2023/04/16 02:16:58;;;;;;;17.27;12.57;;;;;;;7.36;100.00;100032.28;5088032;28;20795;-72
2023/04/16 02:19:24;;;;;;;16.65;12.00;;;;;;;7.34;100.00;100036.88;5087002;28;20407;-72
2023/04/16 02:21:53;;;;;;;15.68;11.60;;;;;;;7.22;100.00;100023.66;5087549;28;20016;-72
2023/04/16 02:24:20;;;;;;;20.38;12.27;;;;;;;7.28;100.00;100041.84;5088109;28;20114;-72
2023/04/16 02:26:45;;;;;;;17.33;12.32;;;;;;;7.10;100.00;100011.28;5087664;28;20585;-72
2023/04/16 02:29:11;;;;;;;17.35;11.25;;;;;;;7.24;100.00;100046.56;5088003;28;20020;-71
2023/04/16 02:31:37;;;;;;;16.13;11.35;;;;;;;7.23;100.00;100050.22;5087580;28;20035;-68
2023/04/16 02:34:02;;;;;;;16.38;11.25;;;;;;;6.98;100.00;100005.94;5092066;28;20034;-68
2023/04/16 02:36:28;;;;;;;14.10;10.50;;;;;;;6.99;100.00;100004.97;5090144;28;20035;-69
2023/04/16 02:38:54;;;;;;;11.82;10.13;;;;;;;7.15;100.00;100041.13;5092688;28;20030;-69
2023/04/16 02:41:19;;;;;;;17.50;10.90;;;;;;;7.11;100.00;100032.50;5074696;28;20043;-69
2023/04/16 02:43:45;;;;;;;14.18;10.75;;;;;;;7.10;100.00;100036.13;5074471;28;20020;-68
2023/04/16 02:46:10;;;;;;;13.80;9.57;;;;;;;7.07;100.00;100039.88;5092933;28;20030;-69
2023/04/16 02:48:36;;;;;;;12.75;9.63;;;;;;;7.06;100.00;100034.66;5091469;28;20031;-69
2023/04/16 02:51:01;;;;;;;15.55;10.50;;;;;;;7.02;100.00;100043.03;5091553;28;20026;-68
2023/04/16 02:53:27;;;;;;;11.75;9.40;;;;;;;6.99;100.00;100039.63;5072794;28;20705;-68
2023/04/16 02:55:54;;;;;;;15.77;10.02;;;;;;;6.97;100.00;100038.88;5090953;28;20031;-69
2023/04/16 02:58:21;;;;;;;12.73;10.20;;;;;;;6.95;100.00;100046.19;5095806;28;20089;-68
2023/04/16 03:00:46;;;;;;;13.38;10.20;;;;;;;6.97;100.00;100054.88;5091393;28;20031;-69
2023/04/16 03:03:12;;;;;;;15.95;9.52;;;;;;;6.98;100.00;100053.94;5073304;28;20039;-69
2023/04/16 03:05:37;;;;;;;13.20;9.70;;;;;;;6.97;100.00;100059.38;5072751;28;20063;-68
2023/04/16 03:08:03;;;;;;;15.10;11.10;;;;;;;6.87;100.00;100037.91;5090949;28;20034;-68
2023/04/16 03:10:29;;;;;;;12.88;9.60;;;;;;;6.79;100.00;100018.16;5091092;28;20036;-69
2023/04/16 03:12:54;;;;;;;14.05;9.57;;;;;;;7.03;100.00;100063.38;5090708;28;20036;-69
2023/04/16 03:15:20;;;;;;;13.60;9.90;;;;;;;6.83;100.00;100025.78;5091091;28;20039;-68
2023/04/16 03:17:45;;;;;;;13.75;10.88;;;;;;;7.01;100.00;100047.50;5090542;28;20574;-69
2023/04/16 03:20:11;;;;;;;16.58;12.00;;;;;;;6.97;100.00;100035.41;5089956;28;20412;-72
2023/04/16 03:22:40;;;;;;;21.17;12.95;;;;;;;7.09;100.00;100050.41;5091190;28;20064;-72
2023/04/16 03:25:07;;;;;;;23.90;14.57;;;;;;;7.16;100.00;100056.97;5090766;28;20525;-72
2023/04/16 03:27:33;;;;;;;23.70;14.57;;;;;;;7.17;100.00;100058.69;5090646;28;20507;-72
2023/04/16 03:29:58;;;;;;;19.80;13.60;;;;;;;7.14;100.00;100052.72;5090744;28;20099;-72
2023/04/16 03:32:24;;;;;;;24.15;14.57;;;;;;;7.10;100.00;100051.28;5091052;28;20110;-72
2023/04/16 03:34:49;;;;;;;23.58;16.80;;;;;;;7.20;100.00;100069.13;5090533;28;20493;-71
2023/04/16 03:37:15;;;;;;;25.52;15.98;;;;;;;7.13;100.00;100051.03;5090974;28;20487;-71
2023/04/16 03:39:41;;;;;;;26.80;16.02;;;;;;;7.23;100.00;100066.22;5090532;28;20032;-71
2023/04/16 03:42:06;;;;;;;18.70;14.23;;;;;;;7.26;100.00;100068.63;5090168;28;20028;-71
2023/04/16 03:44:31;;;;;;;19.38;13.32;;;;;;;7.29;100.00;100062.22;5088949;28;20517;-72
2023/04/16 03:46:57;;;;;;;13.73;10.43;;;;;;;7.33;100.00;100063.66;5071466;28;20570;-72
2023/04/16 03:49:22;;;;;;;17.65;11.25;;;;;;;7.18;100.00;100038.19;5089230;28;20361;-72
2023/04/16 03:51:48;;;;;;;13.63;10.80;;;;;;;7.38;100.00;100064.16;5090292;28;20044;-72
2023/04/16 03:54:13;;;;;;;16.08;11.38;;;;;;;7.42;100.00;100066.47;5090052;28;20035;-72
2023/04/16 03:56:40;;;;;;;14.13;10.35;;;;;;;7.26;100.00;100025.97;5089447;28;20038;-72
2023/04/16 03:59:05;;;;;;;13.35;10.30;;;;;;;7.48;100.00;100068.63;5089338;28;20035;-71
2023/04/16 04:01:31;;;;;;;15.38;10.98;;;;;;;7.53;100.00;100078.94;5089665;28;20388;-71
2023/04/16 04:03:56;;;;;;;13.52;10.93;;;;;;;7.51;100.00;100068.38;5088949;28;20024;-72
2023/04/16 04:06:21;;;;;;;14.88;10.45;;;;;;;7.56;100.00;100073.38;5071922;28;20028;-72
2023/04/16 04:08:47;;;;;;;13.38;9.45;;;;;;;7.53;100.00;100066.47;5070114;28;20103;-72
2023/04/16 04:11:12;;;;;;;14.05;10.02;;;;;;;7.60;100.00;100077.47;5088878;28;20016;-72
2023/04/16 04:13:38;;;;;;;12.90;10.68;;;;;;;7.57;100.00;100062.56;5089730;28;20051;-72
2023/04/16 04:16:04;;;;;;;12.32;10.30;;;;;;;7.61;100.00;100066.69;5089089;28;20253;-72
2023/04/16 04:18:30;;;;;;;13.25;11.15;;;;;;;7.68;100.00;100085.75;5087520;28;20726;-72
2023/04/16 04:20:56;;;;;;;11.93;10.25;;;;;;;7.68;100.00;100078.59;5089258;28;20031;-72
2023/04/16 04:23:21;;;;;;;12.68;10.27;;;;;;;7.74;100.00;100085.25;5071133;28;20066;-72
2023/04/16 04:25:46;;;;;;;11.68;10.32;;;;;;;7.79;100.00;100088.38;5089210;28;20032;-72
2023/04/16 04:28:12;;;;;;;12.45;9.95;;;;;;;7.78;100.00;100082.22;5089177;28;20051;-72
2023/04/16 04:30:37;;;;;;;13.77;11.25;;;;;;;7.62;100.00;100054.19;5095566;28;20115;-69
2023/04/16 04:33:03;;;;;;;15.13;11.50;;;;;;;7.72;100.00;100056.00;5076200;28;20020;-68
2023/04/16 04:35:28;;;;;;;15.45;11.40;;;;;;;7.92;100.00;100076.63;5088530;28;20032;-68
2023/04/16 04:37:54;;;;;;;14.18;10.65;;;;;;;7.97;100.00;100081.59;5088471;28;20027;-68
2023/04/16 04:40:19;;;;;;;14.13;10.07;;;;;;;7.99;100.00;100087.63;5088773;28;20086;-68
2023/04/16 04:42:45;;;;;;;14.20;10.63;;;;;;;7.98;100.00;100077.94;5088601;28;20085;-68
2023/04/16 04:45:11;;;;;;;13.32;10.90;;;;;;;7.96;100.00;100071.88;5088391;28;20388;-69
2023/04/16 04:47:36;;;;;;;14.73;11.15;;;;;;;8.09;100.00;100091.28;5088420;28;20036;-69
2023/04/16 04:50:02;;;;;;;18.55;11.88;;;;;;;8.01;100.00;100073.19;5088320;28;20470;-68
2023/04/16 04:52:27;;;;;;;16.10;11.90;;;;;;;8.15;100.00;100082.75;5088358;28;20035;-68
2023/04/16 04:54:53;;;;;;;17.20;12.68;;;;;;;8.23;100.00;100097.22;5088104;28;20081;-68
2023/04/16 04:57:18;;;;;;;12.95;11.30;;;;;;;8.27;100.00;100087.13;5088480;28;20051;-69
2023/04/16 04:59:43;;;;;;;15.30;11.65;;;;;;;8.32;100.00;100098.28;5069476;28;20027;-69
2023/04/16 05:02:09;;;;;;;13.40;11.32;;;;;;;8.34;100.00;100089.16;5088866;28;20036;-72
2023/04/16 05:04:34;;;;;;;12.75;11.45;;;;;;;8.41;100.00;100094.84;5092485;28;20081;-72
2023/04/16 05:07:01;;;;;;;12.50;11.20;;;;;;;8.43;100.00;100095.56;5073255;28;20040;-73
2023/04/16 05:09:26;;;;;;;13.95;10.95;;;;;;;8.43;100.00;100087.56;5091072;28;20062;-72
2023/04/16 05:11:52;;;;;;;13.38;11.85;;;;;;;8.60;100.00;100105.72;5098254;28;20099;-73
2023/04/16 05:14:17;;;;;;;14.35;12.55;;;;;;;8.64;100.00;100099.16;5089177;28;20048;-73
2023/04/16 05:16:43;;;;;;;15.05;12.95;;;;;;;8.68;100.00;100090.72;5088499;28;20024;-73
2023/04/16 05:19:08;;;;;;;16.40;12.50;;;;;;;8.79;100.00;100095.19;5070967;28;20061;-73
2023/04/16 05:21:33;;;;;;;15.15;13.15;;;;;;;8.79;100.00;100090.69;5069650;28;20028;-72
2023/04/16 05:23:59;;;;;;;14.35;11.68;;;;;;;8.79;100.00;100063.09;5071724;28;20055;-73
2023/04/16 05:26:24;;;;;;;17.60;11.93;;;;;;;9.06;100.00;100095.50;5087698;28;20028;-72
2023/04/16 05:28:50;;;;;;;12.77;11.48;;;;;;;9.08;100.00;100081.06;5087722;28;20036;-72
2023/04/16 05:31:15;;;;;;;12.05;10.80;;;;;;;9.22;100.00;100095.91;5087265;28;20060;-72
2023/04/16 05:33:41;;;;;;;14.70;12.82;;;;;;;9.20;100.00;100089.84;5088873;28;20080;-72
2023/04/16 05:36:06;;;;;;;15.30;12.55;;;;;;;9.19;100.00;100070.25;5085285;28;20032;-72
2023/04/16 05:38:32;;;;;;;17.90;12.77;;;;;;;9.48;100.00;100102.53;5087689;28;20035;-72
2023/04/16 05:40:57;;;;;;;14.15;12.13;;;;;;;9.52;100.00;100103.13;5087530;28;20106;-72
2023/04/16 05:43:23;;;;;;;12.88;11.35;;;;;;;9.52;100.00;100103.97;5087575;28;20024;-73
2023/04/16 05:45:48;;;;;;;13.57;12.13;;;;;;;9.57;100.00;100095.56;5087326;28;20027;-72
2023/04/16 05:48:14;;;;;;;14.55;11.38;;;;;;;9.61;100.00;100103.16;5087861;28;20054;-72
2023/04/16 05:50:39;;;;;;;12.38;11.07;;;;;;;9.60;100.00;100072.03;5087308;28;20069;-72
2023/04/16 05:53:06;;;;;;;13.20;10.93;;;;;;;9.82;100.00;100103.97;5087730;28;20027;-72
2023/04/16 05:55:32;;;;;;;13.13;10.90;;;;;;;9.88;100.00;100097.22;5086862;28;20082;-72
2023/04/16 05:57:58;;;;;;;11.48;9.88;;;;;;;9.98;100.00;100107.00;5087585;28;20044;-71
2023/04/16 06:00:24;;;;;;;14.90;11.18;;;;;;;10.05;100.00;100100.09;5087043;28;20032;-71
2023/04/16 06:02:50;;;;;;;12.82;11.52;;;;;;;10.12;100.00;100109.31;5086983;28;20036;-71
2023/04/16 06:05:15;;;;;;;11.25;10.13;;;;;;;10.30;100.00;100117.53;5068875;28;20032;-71
2023/04/16 06:07:41;;;;;;;11.85;10.65;;;;;;;10.38;100.00;100098.94;5087958;28;20051;-71
2023/04/16 06:10:07;;;;;;;14.32;11.23;;;;;;;10.64;100.00;100108.97;5073047;28;20084;-71
2023/04/16 06:12:32;;;;;;;12.18;10.27;;;;;;;10.78;97.89;100102.34;5090732;28;20035;-72
2023/04/16 06:14:59;;;;;;;11.52;9.45;;;;;;;11.00;96.47;100116.31;5090418;28;20030;-71
2023/04/16 06:17:25;;;;;;;11.48;10.25;;;;;;;11.06;95.39;100120.28;5085828;28;20035;-71
2023/04/16 06:19:51;;;;;;;11.32;9.20;;;;;;;11.09;93.59;100123.53;5072406;28;20071;-72
2023/04/16 06:22:16;;;;;;;13.25;8.45;;;;;;;11.10;92.68;100114.47;5090930;28;22255;-72
2023/04/16 06:24:42;;;;;;;9.90;8.43;;;;;;;11.16;92.54;100113.91;5090819;28;20028;-71
2023/04/16 06:27:07;;;;;;;11.07;8.88;;;;;;;11.19;92.78;100127.03;5090593;28;20019;-72
2023/04/16 06:29:33;;;;;;;11.65;9.43;;;;;;;11.20;92.08;100122.53;5090719;28;20032;-72
2023/04/16 06:31:58;;;;;;;11.30;9.30;;;;;;;11.29;91.45;100127.03;5072158;28;20040;-72
2023/04/16 06:34:24;;;;;;;10.93;8.90;;;;;;;11.38;92.01;100131.53;5090684;28;20105;-72
2023/04/16 06:36:50;;;;;;;10.07;9.02;;;;;;;11.49;91.47;100128.69;5089760;28;20040;-72
2023/04/16 06:39:15;;;;;;;11.55;8.95;;;;;;;11.55;91.40;100125.44;5090531;28;20051;-72
2023/04/16 06:41:41;;;;;;;14.23;8.70;;;;;;;11.57;91.06;100112.69;5072093;28;20040;-72
2023/04/16 06:44:07;;;;;;;11.88;8.23;;;;;;;11.73;89.84;100133.63;5072495;28;20745;-72
2023/04/16 06:46:32;;;;;;;8.32;7.38;;;;;;;11.75;89.31;100140.53;5089968;28;20024;-72
2023/04/16 06:48:57;;;;;;;10.43;8.70;;;;;;;11.76;89.26;100133.28;5089394;28;20028;-72
2023/04/16 06:51:23;;;;;;;8.93;8.02;;;;;;;11.75;88.43;100131.59;5089362;28;20040;-72
2023/04/16 06:53:48;;;;;;;9.15;8.25;;;;;;;11.72;88.77;100135.44;5071726;28;20031;-69
2023/04/16 06:56:14;;;;;;;8.77;7.85;;;;;;;11.57;89.08;100113.53;5089557;28;20028;-69
2023/04/16 06:58:39;;;;;;;9.98;8.18;;;;;;;11.72;89.35;100142.66;5089662;28;20059;-69
2023/04/16 07:01:05;;;;;;;11.75;8.60;;;;;;;11.61;89.37;100132.06;5089253;28;20024;-69
2023/04/16 07:03:30;;;;;;;10.73;8.52;;;;;;;11.64;89.56;100155.97;5090549;28;20040;-69
2023/04/16 07:05:56;;;;;;;9.90;8.23;;;;;;;11.58;89.48;100141.25;5071010;28;20028;-69
2023/04/16 07:08:21;;;;;;;11.45;9.05;;;;;;;11.60;89.98;100152.69;5070692;28;20448;-72
2023/04/16 07:10:47;;;;;;;10.40;9.32;;;;;;;11.53;90.82;100156.94;5088930;28;20399;-72
2023/04/16 07:13:13;;;;;;;11.23;9.20;;;;;;;11.53;91.73;100154.25;5089109;28;20077;-72
2023/04/16 07:15:38;;;;;;;11.77;9.32;;;;;;;11.53;92.05;100144.38;5089003;28;20035;-72
2023/04/16 07:18:04;;;;;;;12.13;10.45;;;;;;;11.48;91.62;100137.72;5088999;28;20700;-72
2023/04/16 07:20:29;;;;;;;13.43;10.73;;;;;;;11.55;92.26;100152.28;5088502;28;20427;-71
2023/04/16 07:22:55;;;;;;;13.30;9.93;;;;;;;11.55;92.04;100161.19;5089461;28;20038;-71
2023/04/16 07:25:20;;;;;;;11.45;9.65;;;;;;;11.52;92.53;100157.94;5088987;28;20111;-71
2023/04/16 07:27:46;;;;;;;14.30;9.30;;;;;;;11.61;93.37;100170.53;5088526;28;20032;-71
2023/04/16 07:30:11;;;;;;;12.75;9.48;;;;;;;11.60;93.86;100154.53;5088557;28;20104;-71
2023/04/16 07:32:37;;;;;;;10.20;8.82;;;;;;;11.76;93.75;100181.66;5089158;28;20028;-71
2023/04/16 07:35:02;;;;;;;11.13;9.57;;;;;;;11.78;92.76;100177.00;5088725;28;20549;-71
2023/04/16 07:37:28;;;;;;;11.60;10.32;;;;;;;11.85;92.51;100178.09;5088925;28;20056;-71
2023/04/16 07:39:56;;;;;;;10.35;8.50;;;;;;;11.80;91.83;100154.34;5088722;28;20028;-71
2023/04/16 07:42:21;;;;;;;9.98;8.55;;;;;;;11.95;91.50;100168.16;5070321;28;20028;-71
2023/04/16 07:44:47;;;;;;;8.43;7.63;;;;;;;12.04;90.18;100178.91;5088608;28;20028;-70
2023/04/16 07:47:12;;;;;;;10.07;7.75;;;;;;;12.05;89.61;100164.44;5088674;28;20523;-71
2023/04/16 07:49:38;;;;;;;9.18;7.70;;;;;;;12.14;90.18;100158.19;5089498;28;20016;-70
2023/04/16 07:52:03;;;;;;;8.73;7.82;;;;;;;12.18;91.68;100161.41;5070505;28;20023;-71
2023/04/16 07:54:29;;;;;;;8.43;7.53;;;;;;;12.40;93.31;100158.34;5088367;28;20032;-71
2023/04/16 07:56:54;;;;;;;10.02;7.90;;;;;;;12.45;93.31;100148.00;5064709;28;20122;-71
2023/04/16 07:59:20;;;;;;;9.13;6.88;;;;;;;12.68;92.02;100163.56;5085657;28;20410;-71
2023/04/16 08:01:46;;;;;;;9.52;6.95;;;;;;;12.77;90.49;100159.09;5085094;28;20118;-71
2023/04/16 08:04:11;;;;;;;11.73;7.00;;;;;;;13.02;90.31;100177.19;5086681;28;20321;-71
2023/04/16 08:06:37;;;;;;;9.73;6.30;;;;;;;13.15;87.78;100175.81;5087489;28;20081;-72
2023/04/16 08:09:02;;;;;;;7.35;6.57;;;;;;;13.39;86.11;100188.66;5086998;28;20496;-72
2023/04/16 08:11:28;;;;;;;8.85;6.68;;;;;;;13.53;83.07;100178.19;5086994;28;20044;-72
2023/04/16 08:13:53;;;;;;;6.93;6.03;;;;;;;13.55;79.79;100181.53;5088025;28;20365;-72
2023/04/16 08:16:19;;;;;;;8.10;5.88;;;;;;;13.57;81.10;100181.38;5087825;28;20036;-70
2023/04/16 08:18:44;;;;;;;6.68;6.03;;;;;;;13.53;80.77;100177.31;5087677;28;20098;-71
2023/04/16 08:21:10;;;;;;;9.13;6.00;;;;;;;13.52;79.86;100181.03;5088128;28;20476;-71
2023/04/16 08:23:35;;;;;;;7.03;6.25;;;;;;;13.50;80.52;100185.72;5087653;28;20036;-71
2023/04/16 08:26:01;;;;;;;7.18;6.28;;;;;;;13.52;80.56;100184.56;5087752;28;20035;-71
2023/04/16 08:28:26;;;;;;;8.25;6.85;;;;;;;13.58;81.54;100169.63;5087256;28;20426;-71
2023/04/16 08:30:52;;;;;;;6.90;6.20;;;;;;;13.77;80.28;100150.56;5087020;28;20572;-71
2023/04/16 08:33:17;;;;;;;7.40;5.53;;;;;;;14.00;79.39;100148.16;5087551;28;20028;-70
2023/04/16 08:35:43;;;;;;;9.55;6.45;;;;;;;14.32;78.76;100168.06;5069949;28;20119;-70
2023/04/16 08:38:08;;;;;;;7.70;6.30;;;;;;;14.61;77.86;100178.47;5087615;28;20027;-71
2023/04/16 08:40:38;;;;;;;7.75;5.45;;;;;;;15.09;73.09;100149.69;5087104;28;20107;-71
2023/04/16 08:43:08;;;;;;;6.75;5.57;;;;;;;15.61;71.48;100134.84;5087251;28;20031;-71
2023/04/16 08:45:34;;;;;;;6.95;5.18;;;;;;;16.16;68.72;100161.97;5087302;28;20111;-71
2023/04/16 08:48:00;;;;;;;5.70;4.95;;;;;;;16.78;66.15;100161.03;5087025;28;20420;-71
2023/04/16 08:50:27;;;;;;;7.15;5.00;;;;;;;17.68;63.11;100166.50;5087004;28;20403;-71
2023/04/16 08:52:57;;;;;;;6.43;4.60;;;;;;;18.51;58.76;100177.97;5087615;28;20536;-71
2023/04/16 08:55:29;;;;;;;5.75;4.47;;;;;;;19.12;56.51;100169.31;5087265;28;20024;-71
2023/04/16 08:57:59;;;;;;;4.78;4.13;;;;;;;19.41;54.60;100152.09;5087026;28;20066;-71
2023/04/16 09:00:27;;;;;;;8.45;4.43;;;;;;;19.90;53.34;100180.94;5087021;28;20061;-71
2023/04/16 09:02:53;;;;;;;5.97;3.80;;;;;;;19.89;52.14;100165.66;5086809;28;20268;-71
2023/04/16 09:05:21;;;;;;;4.70;4.05;;;;;;;20.08;51.65;100181.31;5068936;28;20118;-71
2023/04/16 09:07:47;;;;;;;4.15;3.47;;;;;;;19.93;52.15;100168.84;5068201;28;20038;-72
2023/04/16 09:10:16;;;;;;;6.55;4.03;;;;;;;19.69;52.68;100178.28;5087448;28;20396;-71
2023/04/16 09:12:42;;;;;;;5.28;4.10;;;;;;;19.49;53.94;100184.56;5087525;28;20387;-72
2023/04/16 09:15:12;;;;;;;4.35;3.22;;;;;;;18.99;54.68;100147.41;5086495;28;20069;-72
2023/04/16 09:17:38;;;;;;;3.90;3.60;;;;;;;18.98;55.08;100177.50;5086744;28;20498;-72
2023/04/16 09:20:07;;;;;;;4.45;3.40;;;;;;;18.83;55.63;100185.69;5068150;28;20044;-72
2023/04/16 09:22:35;;;;;;;4.53;3.38;;;;;;;18.56;55.33;100172.81;5084604;28;20039;-68
2023/04/16 09:25:01;;;;;;;3.72;3.20;;;;;;;18.44;56.64;100181.66;5087050;28;20459;-69
2023/04/16 09:27:27;;;;;;;5.80;3.65;;;;;;;17.96;57.48;100140.41;5086704;28;20040;-69
2023/04/16 09:29:52;;;;;;;5.93;4.05;;;;;;;17.83;58.16;100150.22;5087276;28;20371;-69
2023/04/16 09:32:24;;;;;;;9.75;3.67;;;;;;;17.73;58.79;100131.50;5087024;28;20016;-68
2023/04/16 09:35:00;;;;;;;6.97;3.70;;;;;;;17.53;59.16;100173.75;5086818;28;20107;-68
2023/04/16 09:37:29;;;;;;;4.50;3.30;;;;;;;17.53;59.51;100153.91;5086707;28;20102;-68
2023/04/16 09:40:00;;;;;;;3.75;3.33;;;;;;;17.50;60.01;100171.38;5068798;28;20028;-68
2023/04/16 09:42:36;;;;;;;4.30;3.70;;;;;;;17.35;60.56;100159.59;5089774;28;20407;-69
2023/04/16 09:45:02;;;;;;;8.13;3.90;;;;;;;17.33;60.94;100163.53;5091266;28;20392;-73
2023/04/16 09:47:42;;;;;;;3.88;3.47;;;;;;;17.19;61.21;100175.16;5091094;28;20467;-70
2023/04/16 09:50:09;;;;;;;5.95;3.15;;;;;;;17.15;61.65;100158.41;5090790;28;20039;-71
2023/04/16 09:52:37;;;;;;;6.20;3.92;;;;;;;17.10;61.58;100176.25;5090534;28;20111;-70
2023/04/16 09:55:03;;;;;;;5.70;3.35;;;;;;;17.04;61.05;100168.81;5090937;28;20047;-70
2023/04/16 09:57:29;;;;;;;5.55;3.22;;;;;;;17.03;61.99;100180.69;5091098;28;20468;-71
2023/04/16 10:00:01;;;;;;;4.40;3.35;;;;;;;16.97;61.39;100179.56;5091712;28;20043;-71
2023/04/16 10:02:27;;;;;;;7.00;3.75;;;;;;;16.87;61.70;100167.25;5090863;28;21736;-71
2023/04/16 10:04:53;;;;;;;3.78;3.15;;;;;;;16.77;62.32;100169.34;5091015;28;20024;-71
2023/04/16 10:07:19;;;;;;;4.97;3.13;;;;;;;16.73;63.03;100173.44;5090680;28;20751;-71
2023/04/16 10:09:48;;;;;;;3.33;3.03;;;;;;;16.71;63.75;100167.34;5091037;28;20395;-71
2023/04/16 10:12:14;;;;;;;4.45;3.25;;;;;;;16.70;63.83;100173.78;5090818;28;20054;-71
2023/04/16 10:14:41;;;;;;;5.00;3.50;;;;;;;16.63;63.48;100167.38;5090866;28;20032;-71
2023/04/16 10:17:09;;;;;;;4.88;3.20;;;;;;;16.53;64.25;100162.19;5090637;28;20063;-70
2023/04/16 10:19:35;;;;;;;7.85;2.90;;;;;;;16.50;65.00;100150.84;5090238;28;20052;-70
2023/04/16 10:22:03;;;;;;;4.82;3.00;;;;;;;16.44;64.58;100136.16;5090967;28;20032;-71
2023/04/16 10:24:30;;;;;;;5.32;3.10;;;;;;;16.67;63.84;100168.72;5090466;28;20031;-71
2023/04/16 10:26:57;;;;;;;3.72;2.63;;;;;;;16.75;63.81;100163.25;5090387;28;20020;-70
2023/04/16 10:29:23;;;;;;;4.53;3.05;;;;;;;16.78;64.24;100157.47;5090448;28;20060;-71
2023/04/16 10:31:50;;;;;;;4.40;2.83;;;;;;;16.78;63.71;100143.94;5090321;28;20039;-71
2023/04/16 10:34:16;;;;;;;3.50;2.75;;;;;;;16.96;63.26;100161.59;5090519;28;20081;-71
2023/04/16 10:36:42;;;;;;;3.67;2.47;;;;;;;17.11;61.58;100151.66;5090533;28;20023;-71
2023/04/16 10:39:12;;;;;;;5.00;2.50;;;;;;;17.18;61.62;100154.50;5090061;28;20034;-70
2023/04/16 10:41:37;;;;;;;2.80;2.47;;;;;;;17.22;62.17;100162.09;5090087;28;20032;-71
2023/04/16 10:44:08;;;;;;;6.13;2.85;;;;;;;17.28;60.80;100157.81;5090493;28;20024;-71
2023/04/16 10:46:39;;;;;;;2.75;2.47;;;;;;;17.27;59.76;100148.84;5088266;28;20056;-71
2023/04/16 10:49:23;;;;;;;5.30;2.92;;;;;;;17.43;59.98;100154.16;5090404;28;20027;-70
2023/04/16 10:51:52;;;;;;;;;;;;;;;17.51;59.95;100153.25;5089785;28;20031;-71
2023/04/16 10:54:21;;;;;;;2.45;2.20;;;;;;;17.61;60.50;100157.38;5089599;28;19908;-71
2023/04/16 10:56:49;;;;;;;3.00;2.42;;;;;;;17.59;58.44;100129.63;5088284;28;20421;-70
2023/04/16 10:59:18;;;;;;;3.97;2.60;;;;;;;17.60;57.91;100144.00;5090141;28;20089;-71
2023/04/16 11:01:55;;;;;;;8.40;2.70;;;;;;;17.65;59.04;100136.16;5089389;28;20032;-71
2023/04/16 11:04:20;;;;;;;3.80;2.22;;;;;;;17.70;59.08;100155.44;5089761;28;20032;-71
2023/04/16 11:07:12;;;;;;;7.25;2.35;;;;;;;17.80;57.04;100151.44;5089935;28;20050;-70
2023/04/16 11:09:55;;;;;;;4.05;2.38;;;;;;;17.91;57.15;100144.72;5089611;28;20707;-71
2023/04/16 11:12:26;;;;;;;4.97;2.97;;;;;;;17.87;57.66;100144.22;5071305;28;20592;-71